createdAt,value
2023-03-04T00:00:43.582Z,7.82
2023-03-04T00:03:10.014Z,10.32
2023-03-04T00:05:36.824Z,8.95
2023-03-04T00:08:03.450Z,11.05
2023-03-04T00:10:29.897Z,9.57
2023-03-04T00:12:56.292Z,13.93
2023-03-04T00:15:22.735Z,7.72
2023-03-04T00:17:49.153Z,13.48
2023-03-04T00:20:15.580Z,11.80
2023-03-04T00:22:42.012Z,12.03
2023-03-04T00:25:08.522Z,10.43
2023-03-04T00:27:34.949Z,9.75
2023-03-04T00:30:01.345Z,10.95
2023-03-04T00:32:27.827Z,16.67
2023-03-04T00:34:54.314Z,13.23
2023-03-04T00:37:20.695Z,10.60
2023-03-04T00:39:47.196Z,11.73
2023-03-04T00:42:13.601Z,12.18
2023-03-04T00:44:39.953Z,10.50
2023-03-04T00:47:06.516Z,8.10
2023-03-04T00:49:32.904Z,12.80
2023-03-04T00:51:59.406Z,11.93
2023-03-04T00:54:25.903Z,8.88
2023-03-04T00:56:52.242Z,8.85
2023-03-04T00:59:18.662Z,9.47
2023-03-04T01:01:45.190Z,9.38
2023-03-04T01:04:11.611Z,7.03
2023-03-04T01:06:38.041Z,6.93
2023-03-04T01:09:04.642Z,7.25
2023-03-04T01:11:31.195Z,7.90
2023-03-04T01:13:57.666Z,7.28
2023-03-04T01:16:24.075Z,10.43
2023-03-04T01:18:50.466Z,10.65
2023-03-04T01:21:16.903Z,8.23
2023-03-04T01:23:43.373Z,7.90
2023-03-04T01:26:09.770Z,7.88
2023-03-04T01:28:36.173Z,9.90
2023-03-04T01:31:03.125Z,9.75
2023-03-04T01:33:29.830Z,9.93
2023-03-04T01:35:56.209Z,9.13
2023-03-04T01:38:22.655Z,10.07
2023-03-04T01:40:49.068Z,9.43
2023-03-04T01:43:19.013Z,10.48
2023-03-04T01:45:46.000Z,8.35
2023-03-04T01:48:13.829Z,13.40
2023-03-04T01:50:40.235Z,7.85
2023-03-04T01:53:06.620Z,11.52
2023-03-04T01:55:33.902Z,7.85
2023-03-04T01:58:00.288Z,10.50
2023-03-04T02:00:26.908Z,11.97
2023-03-04T02:02:55.088Z,11.30
2023-03-04T02:05:21.847Z,10.25
2023-03-04T02:07:48.901Z,10.73
2023-03-04T02:10:15.488Z,12.50
2023-03-04T02:12:42.760Z,12.60
2023-03-04T02:15:09.472Z,10.95
2023-03-04T02:17:35.871Z,11.68
2023-03-04T02:20:14.429Z,12.00
2023-03-04T02:22:45.691Z,11.65
2023-03-04T02:25:16.264Z,13.80
2023-03-04T02:27:42.678Z,12.18
2023-03-04T02:30:11.025Z,12.52
2023-03-04T02:32:37.515Z,11.98
2023-03-04T02:35:04.194Z,15.57
2023-03-04T02:37:30.625Z,12.37
2023-03-04T02:39:57.085Z,14.07
2023-03-04T02:42:23.483Z,10.13
2023-03-04T02:44:49.858Z,11.00
2023-03-04T02:47:17.244Z,12.82
2023-03-04T02:49:43.632Z,15.87
2023-03-04T02:52:13.429Z,10.23
2023-03-04T02:54:39.963Z,9.30
2023-03-04T02:57:08.008Z,14.35
2023-03-04T02:59:35.362Z,12.10
2023-03-04T03:02:01.887Z,12.70
2023-03-04T03:04:28.381Z,11.07
2023-03-04T03:06:54.712Z,15.10
2023-03-04T03:09:21.535Z,12.77
2023-03-04T03:11:47.878Z,13.50
2023-03-04T03:14:14.376Z,14.57
2023-03-04T03:16:40.800Z,12.07
2023-03-04T03:19:07.171Z,13.30
2023-03-04T03:21:33.601Z,15.10
2023-03-04T03:24:00.019Z,12.05
2023-03-04T03:26:26.458Z,13.50
2023-03-04T03:28:52.830Z,16.10
2023-03-04T03:31:19.533Z,17.58
2023-03-04T03:33:46.027Z,10.85
2023-03-04T03:36:12.563Z,16.98
2023-03-04T03:38:39.257Z,15.43
2023-03-04T03:41:05.868Z,11.38
2023-03-04T03:43:32.388Z,15.40
2023-03-04T03:45:59.081Z,10.15
2023-03-04T03:48:25.590Z,15.10
2023-03-04T03:50:52.163Z,15.13
2023-03-04T03:53:18.716Z,13.38
2023-03-04T03:55:45.231Z,15.60
2023-03-04T03:58:11.836Z,16.35
2023-03-04T04:00:38.499Z,11.00
2023-03-04T04:03:05.227Z,10.60
2023-03-04T04:05:31.710Z,11.48
2023-03-04T04:07:58.308Z,12.00
2023-03-04T04:10:24.967Z,7.88
2023-03-04T04:12:51.522Z,9.82
2023-03-04T04:15:18.049Z,8.13
2023-03-04T04:17:44.647Z,7.85
2023-03-04T04:20:11.626Z,11.10
2023-03-04T04:22:38.257Z,7.10
2023-03-04T04:25:05.268Z,11.98
2023-03-04T04:27:31.769Z,12.50
2023-03-04T04:29:58.406Z,11.43
2023-03-04T04:32:25.044Z,10.27
2023-03-04T04:34:51.556Z,11.10
2023-03-04T04:37:18.211Z,10.50
2023-03-04T04:39:44.793Z,11.93
2023-03-04T04:42:11.707Z,9.15
2023-03-04T04:44:38.362Z,7.25
2023-03-04T04:47:06.046Z,8.50
2023-03-04T04:49:32.889Z,10.70
2023-03-04T04:51:59.425Z,9.57
2023-03-04T04:54:25.962Z,10.63
2023-03-04T04:56:52.539Z,8.57
2023-03-04T04:59:19.077Z,6.90
2023-03-04T05:01:45.609Z,8.80
2023-03-04T05:04:12.139Z,8.27
2023-03-04T05:06:38.669Z,7.55
2023-03-04T05:09:05.535Z,9.25
2023-03-04T05:11:32.186Z,9.98
2023-03-04T05:13:58.726Z,9.65
2023-03-04T05:16:25.276Z,7.30
2023-03-04T05:18:51.795Z,6.82
2023-03-04T05:21:18.365Z,9.55
2023-03-04T05:23:45.242Z,8.63
2023-03-04T05:26:15.542Z,9.77
2023-03-04T05:28:42.236Z,8.87
2023-03-04T05:31:08.988Z,6.72
2023-03-04T05:33:36.076Z,19.13
2023-03-04T05:36:04.959Z,7.85
2023-03-04T05:38:31.768Z,9.30
2023-03-04T05:41:04.018Z,11.13
2023-03-04T05:43:32.195Z,9.15
2023-03-04T05:45:58.829Z,7.32
2023-03-04T05:48:25.536Z,6.93
2023-03-04T05:51:01.125Z,7.15
2023-03-04T05:53:28.572Z,4.00
2023-03-04T05:55:55.709Z,8.70
2023-03-04T05:58:22.609Z,7.35
2023-03-04T06:00:49.135Z,8.90
2023-03-04T06:03:20.567Z,7.68
2023-03-04T06:05:47.445Z,6.87
2023-03-04T06:08:14.322Z,8.30
2023-03-04T06:10:41.633Z,6.97
2023-03-04T06:13:09.576Z,9.35
2023-03-04T06:15:36.185Z,13.45
2023-03-04T06:18:03.014Z,11.07
2023-03-04T06:20:30.143Z,8.30
2023-03-04T06:22:56.880Z,8.30
2023-03-04T06:25:23.532Z,7.88
2023-03-04T06:27:50.928Z,6.70
2023-03-04T06:30:18.855Z,5.67
2023-03-04T06:32:45.815Z,8.65
2023-03-04T06:35:13.522Z,8.23
2023-03-04T06:37:40.691Z,6.88
2023-03-04T06:40:08.000Z,5.47
2023-03-04T06:42:35.813Z,6.45
2023-03-04T06:45:04.241Z,8.40
2023-03-04T06:47:30.914Z,6.70
2023-03-04T06:49:57.576Z,7.15
2023-03-04T06:52:24.350Z,8.65
2023-03-04T06:54:50.919Z,10.00
2023-03-04T06:57:17.588Z,7.40
2023-03-04T06:59:44.080Z,6.97
2023-03-04T07:02:12.320Z,5.25
2023-03-04T07:04:39.763Z,6.85
2023-03-04T07:07:06.531Z,7.20
2023-03-04T07:09:33.710Z,8.13
2023-03-04T07:12:01.269Z,7.85
2023-03-04T07:14:28.077Z,6.50
2023-03-04T07:16:55.175Z,7.25
2023-03-04T07:19:22.355Z,6.32
2023-03-04T07:21:48.920Z,6.13
2023-03-04T07:24:15.982Z,4.22
2023-03-04T07:26:42.490Z,9.30
2023-03-04T07:29:09.102Z,5.60
2023-03-04T07:31:36.058Z,6.50
2023-03-04T07:34:09.876Z,5.70
2023-03-04T07:36:37.199Z,6.28
2023-03-04T07:39:04.993Z,6.32
2023-03-04T07:41:31.817Z,6.18
2023-03-04T07:43:58.917Z,7.28
2023-03-04T07:46:25.745Z,5.20
2023-03-04T07:48:52.863Z,4.38
2023-03-04T07:51:21.973Z,4.85
2023-03-04T07:53:52.193Z,4.60
2023-03-04T07:56:21.698Z,4.32
2023-03-04T07:58:48.273Z,6.07
2023-03-04T08:01:17.823Z,9.45
2023-03-04T08:03:44.620Z,6.68
2023-03-04T08:06:14.140Z,5.05
2023-03-04T08:08:41.122Z,8.85
2023-03-04T08:11:11.124Z,6.57
2023-03-04T08:13:38.343Z,5.22
2023-03-04T08:16:05.872Z,5.20
2023-03-04T08:18:32.703Z,11.80
2023-03-04T08:20:59.371Z,5.20
2023-03-04T08:23:27.234Z,6.20
2023-03-04T08:25:54.291Z,5.80
2023-03-04T08:28:20.849Z,4.55
2023-03-04T08:30:52.890Z,5.57
2023-03-04T08:33:19.857Z,5.72
2023-03-04T08:35:46.357Z,4.00
2023-03-04T08:38:12.977Z,4.50
2023-03-04T08:40:39.612Z,4.05
2023-03-04T08:43:06.232Z,5.35
2023-03-04T08:45:32.730Z,6.68
2023-03-04T08:47:59.358Z,5.13
2023-03-04T08:50:25.885Z,5.53
2023-03-04T08:52:52.373Z,4.47
2023-03-04T08:55:19.326Z,3.22
2023-03-04T08:57:46.189Z,4.20
2023-03-04T09:00:13.612Z,6.65
2023-03-04T09:02:40.222Z,3.83
2023-03-04T09:05:07.348Z,4.70
2023-03-04T09:07:33.742Z,3.75
2023-03-04T09:10:01.518Z,3.20
2023-03-04T09:12:28.167Z,3.38
2023-03-04T09:15:09.917Z,3.45
2023-03-04T09:17:37.642Z,5.72
2023-03-04T09:20:05.044Z,4.20
2023-03-04T09:22:32.097Z,6.57
2023-03-04T09:24:58.649Z,5.57
2023-03-04T09:27:25.466Z,6.20
2023-03-04T09:29:51.937Z,4.47
2023-03-04T09:32:19.609Z,5.38
2023-03-04T09:34:46.185Z,5.47
2023-03-04T09:37:12.530Z,3.75
2023-03-04T09:39:39.581Z,2.95
2023-03-04T09:42:09.180Z,7.20
2023-03-04T09:44:41.663Z,6.15
2023-03-04T09:47:15.421Z,4.30
2023-03-04T09:49:44.511Z,4.25
2023-03-04T09:52:28.988Z,5.90
2023-03-04T09:54:58.474Z,5.75
2023-03-04T09:57:27.665Z,4.13
2023-03-04T10:00:07.277Z,4.07
2023-03-04T10:02:56.359Z,4.75
2023-03-04T10:05:26.288Z,4.68
2023-03-04T10:07:58.748Z,4.60
2023-03-04T10:10:27.417Z,4.97
2023-03-04T10:12:57.853Z,4.83
2023-03-04T10:15:24.216Z,6.32
2023-03-04T10:17:55.598Z,4.32
2023-03-04T10:20:31.190Z,4.70
2023-03-04T10:23:10.200Z,7.30
2023-03-04T10:25:39.002Z,5.83
2023-03-04T10:28:05.507Z,7.55
2023-03-04T10:30:50.790Z,6.50
2023-03-04T10:33:18.440Z,6.20
2023-03-04T10:36:10.972Z,6.88
2023-03-04T10:38:39.946Z,4.45
2023-03-04T10:41:32.534Z,5.25
2023-03-04T10:44:08.078Z,6.00
2023-03-04T10:46:38.150Z,5.32
2023-03-04T10:49:04.885Z,5.20
2023-03-04T10:51:31.620Z,7.17
2023-03-04T10:53:58.017Z,11.02
2023-03-04T10:56:33.481Z,7.85
2023-03-04T10:59:18.847Z,41.65
2023-03-04T11:01:45.231Z,7.40
2023-03-04T11:04:17.993Z,13.33
2023-03-04T11:06:44.639Z,9.85
2023-03-04T11:09:30.437Z,8.02
2023-03-04T11:12:01.062Z,7.20
2023-03-04T11:14:39.644Z,7.15
2023-03-04T11:17:23.286Z,9.47
2023-03-04T11:19:55.844Z,7.35
2023-03-04T11:22:23.368Z,7.30
2023-03-04T11:24:55.560Z,7.07
2023-03-04T11:27:45.293Z,11.52
2023-03-04T11:30:21.065Z,9.30
2023-03-04T11:32:49.779Z,10.75
2023-03-04T11:35:16.405Z,10.35
2023-03-04T11:37:46.041Z,14.13
2023-03-04T11:40:23.672Z,12.43
2023-03-04T11:42:50.229Z,10.10
2023-03-04T11:45:28.469Z,11.10
2023-03-04T11:48:14.865Z,13.52
2023-03-04T11:50:45.363Z,9.45
2023-03-04T11:53:11.762Z,7.05
2023-03-04T11:55:45.800Z,11.37
2023-03-04T11:58:21.051Z,9.35
2023-03-04T12:01:06.301Z,9.55
2023-03-04T12:03:35.533Z,6.65
2023-03-04T12:06:11.288Z,9.95
2023-03-04T12:08:38.080Z,5.80
2023-03-04T12:11:19.725Z,11.63
2023-03-04T12:13:52.100Z,9.48
2023-03-04T12:16:18.553Z,9.27
2023-03-04T12:18:44.915Z,8.73
2023-03-04T12:21:22.870Z,12.10
2023-03-04T12:24:07.807Z,10.32
2023-03-04T12:26:49.247Z,11.65
2023-03-04T12:29:22.487Z,10.45
2023-03-04T12:31:53.996Z,12.38
2023-03-04T12:34:29.428Z,9.57
2023-03-04T12:37:02.604Z,8.90
2023-03-04T12:39:49.642Z,9.20
2023-03-04T12:42:19.423Z,9.38
2023-03-04T12:45:04.462Z,8.65
2023-03-04T12:47:33.989Z,9.83
2023-03-04T12:50:24.277Z,11.00
2023-03-04T12:52:53.729Z,7.30
2023-03-04T12:55:29.054Z,8.20
2023-03-04T12:57:57.188Z,6.55
2023-03-04T13:00:56.664Z,9.03
2023-03-04T13:03:32.065Z,6.90
2023-03-04T13:06:23.573Z,7.57
2023-03-04T13:09:11.940Z,10.15
2023-03-04T13:11:44.529Z,6.13
2023-03-04T13:14:13.802Z,8.80
2023-03-04T13:17:14.057Z,8.20
2023-03-04T13:19:49.248Z,4.70
2023-03-04T13:22:40.543Z,8.95
2023-03-04T13:25:25.619Z,9.13
2023-03-04T13:28:18.055Z,6.37
2023-03-04T13:30:56.989Z,6.10
2023-03-04T13:33:23.547Z,7.68
2023-03-04T13:36:00.390Z,8.63
2023-03-04T13:38:27.072Z,8.90
2023-03-04T13:41:15.292Z,9.47
2023-03-04T13:43:55.563Z,10.43
2023-03-04T13:46:25.282Z,8.90
2023-03-04T13:48:51.871Z,9.00
2023-03-04T13:51:29.941Z,9.40
2023-03-04T13:53:56.525Z,7.70
2023-03-04T13:56:37.300Z,8.75
2023-03-04T13:59:30.133Z,7.05
2023-03-04T14:01:58.274Z,11.25
2023-03-04T14:04:29.417Z,8.02
2023-03-04T14:06:58.390Z,12.50
2023-03-04T14:09:26.743Z,11.82
2023-03-04T14:12:15.698Z,10.45
2023-03-04T14:14:44.941Z,11.05
2023-03-04T14:17:18.017Z,14.05
2023-03-04T14:19:45.575Z,10.53
2023-03-04T14:22:30.494Z,13.75
2023-03-04T14:25:04.910Z,13.63
2023-03-04T14:27:33.168Z,14.75
2023-03-04T14:30:00.849Z,13.15
2023-03-04T14:32:29.216Z,11.27
2023-03-04T14:35:07.074Z,11.43
2023-03-04T14:37:48.868Z,11.90
2023-03-04T14:40:21.418Z,11.38
2023-03-04T14:42:50.341Z,14.40
2023-03-04T14:45:17.945Z,15.67
2023-03-04T14:47:47.554Z,12.88
2023-03-04T14:50:17.846Z,11.48
2023-03-04T14:52:48.335Z,18.33
2023-03-04T14:55:14.787Z,12.57
2023-03-04T14:57:43.568Z,13.83
2023-03-04T15:00:17.823Z,15.63
2023-03-04T15:02:44.445Z,10.77
2023-03-04T15:05:25.485Z,17.08
2023-03-04T15:08:03.289Z,13.27
2023-03-04T15:10:36.497Z,13.83
2023-03-04T15:13:05.674Z,11.95
2023-03-04T15:15:46.561Z,16.80
2023-03-04T15:18:19.016Z,11.43
2023-03-04T15:20:58.325Z,18.20
2023-03-04T15:23:25.039Z,17.73
2023-03-04T15:26:05.148Z,16.98
2023-03-04T15:28:35.639Z,18.13
2023-03-04T15:31:02.851Z,13.40
2023-03-04T15:33:29.591Z,15.43
2023-03-04T15:36:01.741Z,19.13
2023-03-04T15:38:29.430Z,19.52
2023-03-04T15:40:56.512Z,19.33
2023-03-04T15:43:23.894Z,21.98
2023-03-04T15:45:51.264Z,22.75
2023-03-04T15:48:18.708Z,18.73
2023-03-04T15:50:49.310Z,24.38
2023-03-04T15:53:44.282Z,23.52
2023-03-04T15:56:21.903Z,22.45
2023-03-04T15:58:54.693Z,25.98
2023-03-04T16:01:23.420Z,29.00
2023-03-04T16:03:53.411Z,19.35
2023-03-04T16:06:21.166Z,25.27
2023-03-04T16:08:49.573Z,24.92
2023-03-04T16:11:22.963Z,24.80
2023-03-04T16:13:49.984Z,19.03
2023-03-04T16:16:16.802Z,17.70
2023-03-04T16:18:43.817Z,20.40
2023-03-04T16:21:15.361Z,20.05
2023-03-04T16:23:45.897Z,18.83
2023-03-04T16:26:14.871Z,14.27
2023-03-04T16:28:42.258Z,18.77
2023-03-04T16:31:11.510Z,21.48
2023-03-04T16:33:38.241Z,17.60
2023-03-04T16:36:11.420Z,18.83
2023-03-04T16:38:38.048Z,17.93
2023-03-04T16:41:12.413Z,14.70
2023-03-04T16:43:40.257Z,10.98
2023-03-04T16:46:07.486Z,17.27
2023-03-04T16:48:34.138Z,15.88
2023-03-04T16:51:06.733Z,18.43
2023-03-04T16:53:39.597Z,16.30
2023-03-04T16:56:12.017Z,11.85
2023-03-04T16:58:38.621Z,16.02
2023-03-04T17:01:05.661Z,19.25
2023-03-04T17:03:32.563Z,16.77
2023-03-04T17:05:59.102Z,19.70
2023-03-04T17:08:25.679Z,19.38
2023-03-04T17:10:52.468Z,15.40
2023-03-04T17:13:19.397Z,16.70
2023-03-04T17:15:46.064Z,19.70
2023-03-04T17:18:13.666Z,19.40
2023-03-04T17:20:40.253Z,18.48
2023-03-04T17:23:06.885Z,19.20
2023-03-04T17:25:33.260Z,19.92
2023-03-04T17:27:59.750Z,17.47
2023-03-04T17:30:26.512Z,13.43
2023-03-04T17:32:53.014Z,18.20
2023-03-04T17:35:19.627Z,20.55
2023-03-04T17:37:46.140Z,21.00
2023-03-04T17:40:12.931Z,46.83
2023-03-04T17:42:40.752Z,9.82
2023-03-04T17:45:08.470Z,21.02
2023-03-04T17:47:36.231Z,14.13
2023-03-04T17:50:04.158Z,17.50
2023-03-04T17:52:30.698Z,16.93
2023-03-04T17:54:57.211Z,22.80
2023-03-04T17:57:23.745Z,19.25
2023-03-04T17:59:50.391Z,20.77
2023-03-04T18:02:17.045Z,24.40
2023-03-04T18:04:43.848Z,19.60
2023-03-04T18:07:10.442Z,13.15
2023-03-04T18:09:36.947Z,18.63
2023-03-04T18:12:04.164Z,21.60
2023-03-04T18:14:30.685Z,23.30
2023-03-04T18:16:57.242Z,25.77
2023-03-04T18:19:23.674Z,18.27
2023-03-04T18:21:50.316Z,26.63
2023-03-04T18:24:16.798Z,24.13
2023-03-04T18:26:43.389Z,24.10
2023-03-04T18:29:10.194Z,22.70
2023-03-04T18:31:36.810Z,20.17
2023-03-04T18:34:04.072Z,22.85
2023-03-04T18:36:30.718Z,20.02
2023-03-04T18:38:57.414Z,21.98
2023-03-04T18:41:26.432Z,23.17
2023-03-04T18:43:54.617Z,21.17
2023-03-04T18:46:31.372Z,23.50
2023-03-04T18:49:05.523Z,24.73
2023-03-04T18:51:32.164Z,24.48
2023-03-04T18:53:58.771Z,25.47
2023-03-04T18:56:47.547Z,23.88
2023-03-04T18:59:55.482Z,21.02
2023-03-04T19:02:35.770Z,17.85
2023-03-04T19:05:07.710Z,17.35
2023-03-04T19:07:34.274Z,23.93
2023-03-04T19:10:00.939Z,23.63
2023-03-04T19:12:27.317Z,23.85
2023-03-04T19:14:53.974Z,19.77
2023-03-04T19:17:20.502Z,22.48
2023-03-04T19:19:47.069Z,24.37
2023-03-04T19:22:13.562Z,24.40
2023-03-04T19:24:40.286Z,26.00
2023-03-04T19:27:06.792Z,24.92
2023-03-04T19:29:33.435Z,16.63
2023-03-04T19:32:00.027Z,22.00
2023-03-04T19:34:26.509Z,22.48
2023-03-04T19:36:53.194Z,34.58
2023-03-04T19:39:19.740Z,14.95
2023-03-04T19:41:46.210Z,23.40
2023-03-04T19:44:12.726Z,23.60
2023-03-04T19:46:39.390Z,22.73
2023-03-04T19:49:06.069Z,13.23
2023-03-04T19:51:32.754Z,19.77
2023-03-04T19:54:00.044Z,17.35
2023-03-04T19:56:26.503Z,19.87
2023-03-04T19:58:53.861Z,27.13
2023-03-04T20:01:21.173Z,20.90
2023-03-04T20:03:47.755Z,18.13
2023-03-04T20:06:14.183Z,16.58
2023-03-04T20:08:41.763Z,13.00
2023-03-04T20:11:12.204Z,19.15
2023-03-04T20:13:38.803Z,12.55
2023-03-04T20:16:10.880Z,15.73
2023-03-04T20:18:38.237Z,19.73
2023-03-04T20:21:05.910Z,16.57
2023-03-04T20:23:32.518Z,13.15
2023-03-04T20:25:59.066Z,15.20
2023-03-04T20:28:25.609Z,15.00
2023-03-04T20:30:52.625Z,9.07
2023-03-04T20:33:19.602Z,15.43
2023-03-04T20:35:46.132Z,15.40
2023-03-04T20:38:12.728Z,18.38
2023-03-04T20:40:39.209Z,16.80
2023-03-04T20:43:06.022Z,15.85
2023-03-04T20:45:33.707Z,13.60
2023-03-04T20:48:00.290Z,22.77
2023-03-04T20:50:26.773Z,12.48
2023-03-04T20:52:53.164Z,11.35
2023-03-04T20:55:19.832Z,11.88
2023-03-04T20:57:46.558Z,13.80
2023-03-04T21:00:13.581Z,12.60
2023-03-04T21:02:40.132Z,16.73
2023-03-04T21:05:07.044Z,16.10
2023-03-04T21:07:33.590Z,15.02
2023-03-04T21:10:01.389Z,17.60
2023-03-04T21:12:27.834Z,13.77
2023-03-04T21:14:54.297Z,10.27
2023-03-04T21:17:20.763Z,13.55
2023-03-04T21:19:47.274Z,11.40
2023-03-04T21:22:18.958Z,9.33
2023-03-04T21:24:45.932Z,8.82
2023-03-04T21:27:12.683Z,10.40
2023-03-04T21:29:40.810Z,8.68
2023-03-04T21:32:23.325Z,8.05
2023-03-04T21:34:52.408Z,6.37
2023-03-04T21:37:20.923Z,5.20
2023-03-04T21:39:47.532Z,7.88
2023-03-04T21:42:14.150Z,8.52
2023-03-04T21:44:48.937Z,5.20
2023-03-04T21:47:16.911Z,6.63
2023-03-04T21:49:43.663Z,5.80
2023-03-04T21:52:10.201Z,6.65
2023-03-04T21:54:36.772Z,6.25
2023-03-04T21:57:03.464Z,5.75
2023-03-04T21:59:30.013Z,6.00
2023-03-04T22:01:56.585Z,6.78
2023-03-04T22:04:23.349Z,5.63
2023-03-04T22:06:49.924Z,6.18
2023-03-04T22:09:16.429Z,5.22
2023-03-04T22:11:43.145Z,4.50
2023-03-04T22:14:10.419Z,3.92
2023-03-04T22:16:42.460Z,3.83
2023-03-04T22:19:15.253Z,4.53
2023-03-04T22:21:41.737Z,3.45
2023-03-04T22:24:08.288Z,3.00
2023-03-04T22:26:35.084Z,4.15
2023-03-04T22:29:02.061Z,3.50
2023-03-04T22:31:34.776Z,3.35
2023-03-04T22:34:03.976Z,4.85
2023-03-04T22:36:37.825Z,3.07
2023-03-04T22:39:06.568Z,3.75
2023-03-04T22:41:33.516Z,3.75
2023-03-04T22:44:00.356Z,2.83
2023-03-04T22:46:29.789Z,3.35
2023-03-04T22:48:59.256Z,4.30
2023-03-04T22:51:26.191Z,4.03
2023-03-04T22:53:53.864Z,3.65
2023-03-04T22:56:20.946Z,4.45
2023-03-04T22:58:48.328Z,3.05
2023-03-04T23:01:16.513Z,4.20
2023-03-04T23:03:44.958Z,5.00
2023-03-04T23:06:18.357Z,5.45
2023-03-04T23:08:46.659Z,4.78
2023-03-04T23:11:16.797Z,3.70
2023-03-04T23:13:44.017Z,7.30
2023-03-04T23:16:12.253Z,4.90
2023-03-04T23:18:40.770Z,4.35
2023-03-04T23:21:09.843Z,4.47
2023-03-04T23:23:36.569Z,6.60
2023-03-04T23:26:03.817Z,6.10
2023-03-04T23:28:30.440Z,5.68
2023-03-04T23:30:57.100Z,4.10
2023-03-04T23:33:23.642Z,6.32
2023-03-04T23:35:50.302Z,7.80
2023-03-04T23:38:16.824Z,5.70
2023-03-04T23:40:43.401Z,4.55
2023-03-04T23:43:09.966Z,6.55
2023-03-04T23:45:37.678Z,5.50
2023-03-04T23:48:04.523Z,4.53
2023-03-04T23:50:31.269Z,3.77
2023-03-04T23:52:58.112Z,4.55
2023-03-04T23:55:24.627Z,4.82
2023-03-04T23:57:51.295Z,2.88
